Time;durP1;ratioP1;P1;durP2;ratioP2;P2;SDS_P1;SDS_P2;PMS_P1;PMS_P2;Temp;Humidity;BMP_temperature;BMP_pressure;BME280_temperature;BME280_humidity;BME280_pressure;Samples;Min_cycle;Max_cycle;Signal;HPM_P1;HPM_P2
2022/03/16 00:02:06;;;;;;;2.90;2.80;;;;;;;2.78;100.00;102031.06;6091458;23;20182;-64
2022/03/16 00:04:32;;;;;;;3.30;3.20;;;;;;;2.69;100.00;102034.50;6088598;23;20021;-65
2022/03/16 00:07:00;;;;;;;4.63;4.43;;;;;;;2.78;100.00;102042.28;6086829;23;20029;-64
2022/03/16 00:09:26;;;;;;;2.90;2.80;;;;;;;2.54;100.00;102004.22;6090904;23;20081;-64
2022/03/16 00:11:53;;;;;;;4.93;4.72;;;;;;;2.51;100.00;101988.69;6086578;23;20038;-65
2022/03/16 00:14:19;;;;;;;2.80;2.70;;;;;;;2.78;100.00;102021.53;6090264;23;20471;-65
2022/03/16 00:16:46;;;;;;;2.90;2.80;;;;;;;2.82;100.00;102037.13;6085065;23;20025;-65
2022/03/16 00:19:12;;;;;;;3.13;3.03;;;;;;;2.74;100.00;102037.97;6085656;23;20081;-65
2022/03/16 00:21:39;;;;;;;3.45;3.25;;;;;;;2.66;100.00;102047.44;6085002;23;20026;-65
2022/03/16 00:24:05;;;;;;;3.40;3.30;;;;;;;2.57;100.00;102031.91;6085248;23;20177;-65
2022/03/16 00:26:34;;;;;;;3.08;2.97;;;;;;;2.38;100.00;102018.88;6088297;23;20105;-65
2022/03/16 00:29:00;;;;;;;4.70;4.50;;;;;;;2.45;100.00;102031.88;6085641;23;20034;-65
2022/03/16 00:31:27;;;;;;;3.10;3.00;;;;;;;1.00;100.00;101800.94;6082989;23;20081;-65
2022/03/16 00:33:53;;;;;;;4.43;4.22;;;;;;;2.42;100.00;102037.03;6094352;23;20021;-64
2022/03/16 00:36:21;;;;;;;2.80;2.70;;;;;;;2.39;100.00;102037.91;6080936;23;20232;-64
2022/03/16 00:38:48;;;;;;;3.58;3.45;;;;;;;2.15;100.00;101992.91;6086703;23;20369;-65
2022/03/16 00:41:15;;;;;;;3.42;3.22;;;;;;;2.40;100.00;102037.00;6085815;23;20081;-65
2022/03/16 00:43:42;;;;;;;3.00;2.90;;;;;;;2.38;100.00;102036.16;6086116;23;20105;-65
2022/03/16 00:46:09;;;;;;;3.00;2.90;;;;;;;2.35;100.00;102029.25;6087718;23;20013;-65
2022/03/16 00:48:36;;;;;;;3.15;3.05;;;;;;;2.08;100.00;101987.69;6079812;23;20033;-65
2022/03/16 00:51:02;;;;;;;4.78;4.57;;;;;;;2.42;100.00;102031.84;6059650;23;20025;-65
2022/03/16 00:53:30;;;;;;;3.00;2.90;;;;;;;2.10;100.00;101984.25;6083555;23;20104;-65
2022/03/16 00:55:57;;;;;;;4.75;4.55;;;;;;;2.18;100.00;102008.44;6086008;23;20363;-65
2022/03/16 00:58:24;;;;;;;3.15;3.05;;;;;;;2.27;100.00;102041.31;6087947;23;20102;-65
2022/03/16 01:00:50;;;;;;;4.47;4.28;;;;;;;2.21;100.00;102043.88;6082261;23;20369;-65
2022/03/16 01:03:17;;;;;;;2.80;2.70;;;;;;;2.15;100.00;102038.66;6098862;23;20062;-65
2022/03/16 01:05:44;;;;;;;2.92;2.83;;;;;;;2.05;100.00;102036.91;6091139;23;20049;-64
2022/03/16 01:08:10;;;;;;;3.17;3.08;;;;;;;1.99;100.00;102040.31;6090725;23;20347;-65
2022/03/16 01:10:37;;;;;;;3.38;3.28;;;;;;;1.85;100.00;102010.91;6096187;23;20482;-64
2022/03/16 01:13:04;;;;;;;4.10;3.90;;;;;;;1.99;100.00;102029.97;6094989;23;20506;-64
2022/03/16 01:15:30;;;;;;;2.95;2.85;;;;;;;2.07;100.00;102036.03;6090429;23;20025;-64
2022/03/16 01:17:57;;;;;;;4.47;4.28;;;;;;;1.80;100.00;101995.34;6084615;23;20444;-65
2022/03/16 01:20:24;;;;;;;3.83;3.55;;;;;;;1.93;100.00;102002.31;6086896;23;20041;-64
2022/03/16 01:22:50;;;;;;;3.50;3.40;;;;;;;0.83;100.00;101815.50;6085605;23;20093;-64
2022/03/16 01:25:17;;;;;;;2.80;2.70;;;;;;;0.82;100.00;101818.94;6085763;23;20029;-64
2022/03/16 01:27:43;;;;;;;3.08;2.97;;;;;;;1.86;100.00;102010.03;6091017;23;20109;-65
2022/03/16 01:30:10;;;;;;;3.80;3.60;;;;;;;1.81;100.00;102002.25;6084026;23;20049;-65
2022/03/16 01:32:37;;;;;;;2.90;2.80;;;;;;;1.87;100.00;102017.81;6071873;23;20021;-65
2022/03/16 01:35:03;;;;;;;4.55;4.35;;;;;;;1.90;100.00;102017.81;6092272;23;20595;-64
2022/03/16 01:37:30;;;;;;;3.10;3.00;;;;;;;1.90;100.00;102038.53;6076128;23;20016;-65
2022/03/16 01:39:57;;;;;;;4.75;4.55;;;;;;;1.92;100.00;102023.88;6086654;23;20622;-65
2022/03/16 01:42:23;;;;;;;3.88;3.67;;;;;;;1.91;100.00;102016.13;6089725;23;20081;-65
2022/03/16 01:44:52;;;;;;;4.35;4.18;;;;;;;1.93;100.00;102022.16;6084232;23;20010;-65
2022/03/16 01:47:20;;;;;;;3.00;2.90;;;;;;;1.97;100.00;102017.00;6095774;23;20030;-64
2022/03/16 01:49:48;;;;;;;3.05;2.95;;;;;;;2.01;100.00;102014.44;6055439;23;20105;-65
2022/03/16 01:52:18;;;;;;;2.97;2.88;;;;;;;2.03;100.00;102023.06;6103261;23;20017;-65
2022/03/16 01:54:44;;;;;;;3.10;3.00;;;;;;;1.98;100.00;102023.03;6091298;23;20348;-65
2022/03/16 01:57:11;;;;;;;3.30;3.20;;;;;;;1.90;100.00;102017.81;6083025;23;20021;-65
2022/03/16 01:59:39;;;;;;;3.50;3.30;;;;;;;1.96;100.00;102011.81;6091234;23;20601;-64
2022/03/16 02:02:06;;;;;;;3.10;3.00;;;;;;;1.96;100.00;102017.84;6082751;23;20029;-64
2022/03/16 02:04:32;;;;;;;3.00;2.90;;;;;;;1.87;100.00;102009.19;6087661;23;20025;-64
2022/03/16 02:06:59;;;;;;;4.45;4.25;;;;;;;1.94;100.00;102016.97;6086245;23;20699;-65
2022/03/16 02:09:27;;;;;;;3.13;3.03;;;;;;;1.95;100.00;102018.72;6084367;23;20226;-65
2022/03/16 02:11:53;;;;;;;4.28;4.07;;;;;;;1.98;100.00;102017.84;6084127;23;20048;-65
2022/03/16 02:14:19;;;;;;;2.80;2.70;;;;;;;1.94;100.00;102013.53;6087687;23;20421;-64
2022/03/16 02:16:47;;;;;;;2.90;2.80;;;;;;;1.94;100.00;102014.38;6084718;23;20103;-65
2022/03/16 02:19:15;;;;;;;3.00;2.90;;;;;;;1.63;100.00;101963.34;6088706;23;20010;-65
2022/03/16 02:21:45;;;;;;;2.80;2.70;;;;;;;1.83;100.00;101999.69;6084135;23;20057;-65
2022/03/16 02:24:12;;;;;;;3.03;2.90;;;;;;;1.74;100.00;101985.81;6095842;23;20026;-65
2022/03/16 02:26:39;;;;;;;3.15;3.05;;;;;;;1.58;100.00;101959.03;6092309;23;20487;-65
2022/03/16 02:29:06;;;;;;;3.13;3.03;;;;;;;1.73;100.00;101975.47;6082262;23;20343;-65
2022/03/16 02:31:32;;;;;;;2.90;2.80;;;;;;;1.87;100.00;102006.59;6086883;23;20021;-65
2022/03/16 02:33:59;;;;;;;4.80;4.60;;;;;;;1.34;100.00;101941.63;6055116;23;20111;-65
2022/03/16 02:36:25;;;;;;;3.00;2.90;;;;;;;1.53;100.00;101980.53;6085355;23;20045;-64
2022/03/16 02:38:52;;;;;;;4.28;4.07;;;;;;;1.68;100.00;102006.47;6083165;23;20073;-65
2022/03/16 02:41:18;;;;;;;3.08;2.97;;;;;;;1.55;100.00;101995.22;6085979;23;20032;-64
2022/03/16 02:43:44;;;;;;;3.10;3.00;;;;;;;1.62;100.00;102008.19;6086615;23;20400;-64
2022/03/16 02:46:11;;;;;;;2.88;2.75;;;;;;;1.45;100.00;101977.91;6086565;23;20028;-65
2022/03/16 02:48:37;;;;;;;2.90;2.80;;;;;;;1.62;100.00;101988.34;6069394;23;20022;-65
2022/03/16 02:51:04;;;;;;;4.28;4.07;;;;;;;1.68;100.00;102003.03;6084166;23;20030;-65
2022/03/16 02:53:30;;;;;;;3.03;2.92;;;;;;;1.49;100.00;101986.56;6084180;23;20026;-65
2022/03/16 02:55:56;;;;;;;5.30;5.07;;;;;;;1.65;100.00;102016.84;6089017;23;20064;-67
2022/03/16 02:58:23;;;;;;;2.83;2.72;;;;;;;1.70;100.00;102019.44;6087361;23;20025;-66
2022/03/16 03:00:49;;;;;;;4.18;4.00;;;;;;;1.58;100.00;101992.66;6087897;23;20018;-68
2022/03/16 03:03:17;;;;;;;3.88;3.67;;;;;;;1.49;100.00;101986.56;6080034;23;20228;-65
2022/03/16 03:05:45;;;;;;;2.85;2.75;;;;;;;1.67;100.00;102024.63;6104789;23;20374;-65
2022/03/16 03:08:12;;;;;;;2.53;2.42;;;;;;;1.75;100.00;102002.22;6084439;23;20197;-64
2022/03/16 03:10:38;;;;;;;2.80;2.70;;;;;;;1.85;100.00;102004.00;6089005;23;20495;-64
2022/03/16 03:13:05;;;;;;;3.00;2.90;;;;;;;1.71;100.00;101957.34;6084985;23;20022;-65
2022/03/16 03:15:32;;;;;;;3.78;3.53;;;;;;;1.83;100.00;101963.44;6086343;23;20045;-64
2022/03/16 03:17:58;;;;;;;4.55;4.35;;;;;;;1.79;100.00;101960.84;6081444;23;20014;-64
2022/03/16 03:20:25;;;;;;;2.80;2.70;;;;;;;2.01;100.00;101986.81;6085399;23;20021;-65
2022/03/16 03:22:51;;;;;;;5.30;4.93;;;;;;;1.88;100.00;101967.75;6064902;23;20045;-65
2022/03/16 03:25:18;;;;;;;2.70;2.60;;;;;;;2.04;100.00;101991.13;6085398;23;20115;-64
2022/03/16 03:27:44;;;;;;;3.05;2.95;;;;;;;1.94;100.00;101988.50;6090005;23;20076;-64
2022/03/16 03:30:11;;;;;;;2.65;2.55;;;;;;;1.91;100.00;102008.34;6080600;23;20045;-65
2022/03/16 03:32:38;;;;;;;3.05;2.95;;;;;;;1.65;100.00;101987.50;6075409;23;20056;-64
2022/03/16 03:35:06;;;;;;;3.60;3.50;;;;;;;1.62;100.00;102003.00;6091728;23;20149;-65
2022/03/16 03:37:33;;;;;;;2.60;2.50;;;;;;;1.57;100.00;102005.56;6065849;23;20022;-65
2022/03/16 03:39:59;;;;;;;4.55;4.35;;;;;;;1.47;100.00;102008.97;6091709;23;20044;-64
2022/03/16 03:42:26;;;;;;;3.35;3.25;;;;;;;1.42;100.00;102018.41;6086837;23;20025;-64
2022/03/16 03:44:52;;;;;;;4.50;4.30;;;;;;;1.15;100.00;101982.00;6085051;23;20118;-63
2022/03/16 03:47:19;;;;;;;2.63;2.53;;;;;;;1.39;100.00;102024.41;6095789;23;20093;-64
2022/03/16 03:49:45;;;;;;;3.00;2.90;;;;;;;1.36;100.00;102030.44;6082188;23;20002;-64
2022/03/16 03:52:12;;;;;;;2.65;2.55;;;;;;;1.35;100.00;102033.88;6089333;23;20383;-64
2022/03/16 03:54:40;;;;;;;2.70;2.60;;;;;;;1.31;100.00;102026.09;6086635;23;20014;-65
2022/03/16 03:57:07;;;;;;;3.00;2.90;;;;;;;1.39;100.00;102032.19;6084984;23;20014;-65
2022/03/16 03:59:33;;;;;;;3.53;3.33;;;;;;;1.42;100.00;102027.00;6089299;23;20113;-64
2022/03/16 04:02:00;;;;;;;5.20;5.00;;;;;;;1.05;100.00;101981.94;6086791;23;20093;-65
2022/03/16 04:04:26;;;;;;;2.80;2.70;;;;;;;1.18;100.00;102013.06;6100321;23;20040;-65
2022/03/16 04:06:53;;;;;;;6.63;4.85;;;;;;;1.30;100.00;102024.34;6089700;23;20021;-65
2022/03/16 04:09:20;;;;;;;3.65;3.45;;;;;;;1.05;100.00;101990.56;6096391;23;20229;-64
2022/03/16 04:11:47;;;;;;;2.67;2.58;;;;;;;1.25;100.00;102032.06;6089213;23;20026;-63
2022/03/16 04:14:13;;;;;;;2.90;2.80;;;;;;;1.28;100.00;102020.88;6082594;23;20020;-64
2022/03/16 04:16:39;;;;;;;3.33;3.22;;;;;;;1.11;100.00;101998.34;6069096;23;20018;-64
2022/03/16 04:19:06;;;;;;;2.67;2.58;;;;;;;1.33;100.00;102032.13;6082509;23;20026;-64
2022/03/16 04:21:33;;;;;;;2.65;2.55;;;;;;;1.18;100.00;101983.75;6090210;23;20030;-64
2022/03/16 04:24:01;;;;;;;4.38;4.18;;;;;;;1.43;100.00;102028.75;6079454;23;20071;-64
2022/03/16 04:26:28;;;;;;;2.60;2.50;;;;;;;1.49;100.00;102020.19;6091748;23;20047;-64
2022/03/16 04:28:54;;;;;;;4.30;4.10;;;;;;;1.47;100.00;102017.59;6087517;23;20041;-66
2022/03/16 04:31:21;;;;;;;2.42;2.33;;;;;;;1.45;100.00;102018.44;6094076;23;20449;-64
2022/03/16 04:33:47;;;;;;;2.70;2.60;;;;;;;1.54;100.00;102021.94;6093399;23;20720;-65
2022/03/16 04:36:14;;;;;;;2.80;2.70;;;;;;;1.59;100.00;102030.59;6094239;23;20728;-64
2022/03/16 04:38:40;;;;;;;2.90;2.80;;;;;;;1.35;100.00;101974.38;6095923;23;20052;-65
2022/03/16 04:41:07;;;;;;;2.47;2.38;;;;;;;1.51;100.00;102003.81;6057958;23;20045;-64
2022/03/16 04:43:33;;;;;;;2.88;2.78;;;;;;;0.27;100.00;101781.53;6091494;23;20078;-64
2022/03/16 04:45:59;;;;;;;2.50;2.40;;;;;;;1.69;100.00;102020.31;6098351;23;20596;-65
2022/03/16 04:48:26;;;;;;;3.00;2.90;;;;;;;1.61;100.00;101996.13;6086917;23;20498;-65
2022/03/16 04:50:52;;;;;;;4.22;4.03;;;;;;;1.87;100.00;102022.13;6083075;23;20286;-65
2022/03/16 04:53:19;;;;;;;3.05;2.95;;;;;;;1.65;100.00;101990.09;6087797;23;20026;-64
2022/03/16 04:55:45;;;;;;;2.75;2.65;;;;;;;1.14;100.00;101910.47;6073295;23;20074;-64
2022/03/16 04:58:12;;;;;;;2.60;2.50;;;;;;;1.84;100.00;101999.66;6105581;23;20276;-64
2022/03/16 05:00:39;;;;;;;2.70;2.60;;;;;;;2.00;100.00;102016.13;6109742;23;20269;-65
2022/03/16 05:03:05;;;;;;;3.10;3.00;;;;;;;1.88;100.00;102011.75;6083097;23;20519;-64
2022/03/16 05:05:32;;;;;;;2.53;2.42;;;;;;;1.45;100.00;101943.41;6095945;23;20356;-64
2022/03/16 05:07:58;;;;;;;4.20;4.00;;;;;;;1.87;100.00;102012.63;6086063;23;20019;-64
2022/03/16 05:10:25;;;;;;;3.00;2.80;;;;;;;1.74;100.00;102003.06;6080351;23;20014;-64
2022/03/16 05:12:51;;;;;;;3.92;3.78;;;;;;;1.65;100.00;101988.38;6089599;23;20014;-64
2022/03/16 05:15:19;;;;;;;2.60;2.50;;;;;;;1.83;100.00;102020.38;6084859;23;20073;-64
2022/03/16 05:17:47;;;;;;;2.60;2.50;;;;;;;1.49;100.00;101968.44;6090976;23;20053;-64
2022/03/16 05:20:14;;;;;;;2.80;2.70;;;;;;;1.51;100.00;101967.59;6085007;23;20028;-65
2022/03/16 05:22:48;;;;;;;3.28;3.17;;;;;;;1.62;100.00;101990.06;6090051;23;20026;-64
2022/03/16 05:25:18;;;;;;;2.67;2.58;;;;;;;1.74;100.00;102023.78;6086547;23;20351;-64
2022/03/16 05:27:44;;;;;;;2.80;2.70;;;;;;;1.75;100.00;102025.53;6086239;23;20053;-64
2022/03/16 05:30:12;;;;;;;2.88;2.78;;;;;;;1.59;100.00;102001.28;6082686;23;20029;-64
2022/03/16 05:32:41;;;;;;;2.95;2.85;;;;;;;1.41;100.00;101978.75;6079635;23;20036;-64
2022/03/16 05:35:09;;;;;;;3.08;2.97;;;;;;;1.59;100.00;102016.78;6059247;23;20026;-65
2022/03/16 05:37:36;;;;;;;2.60;2.50;;;;;;;1.69;100.00;102033.25;6089525;23;20026;-65
2022/03/16 05:40:05;;;;;;;4.45;4.25;;;;;;;1.54;100.00;102003.84;6086076;23;20032;-64
2022/03/16 05:42:31;;;;;;;2.85;2.75;;;;;;;1.23;100.00;101963.97;6066067;23;20014;-64
2022/03/16 05:44:57;;;;;;;4.47;4.28;;;;;;;1.28;100.00;101980.38;6088815;23;20280;-65
2022/03/16 05:47:24;;;;;;;3.20;3.10;;;;;;;1.51;100.00;102024.50;6083493;23;20017;-64
2022/03/16 05:49:52;;;;;;;4.07;3.90;;;;;;;1.62;100.00;102039.22;6085119;23;20024;-64
2022/03/16 05:52:21;;;;;;;2.83;2.72;;;;;;;1.62;100.00;102036.66;6085128;23;20030;-64
2022/03/16 05:54:55;;;;;;;3.17;3.08;;;;;;;1.58;100.00;102046.09;6094729;23;20059;-64
2022/03/16 05:57:23;;;;;;;2.60;2.50;;;;;;;1.38;100.00;102007.16;6088607;23;20030;-66
2022/03/16 05:59:50;;;;;;;3.40;3.20;;;;;;;1.57;100.00;102050.41;6082485;23;20020;-64
2022/03/16 06:02:17;;;;;;;2.95;2.85;;;;;;;1.56;100.00;102056.47;6085930;23;20027;-64
2022/03/16 06:04:44;;;;;;;3.17;2.97;;;;;;;1.28;100.00;102003.63;6077966;23;20017;-65
2022/03/16 06:07:12;;;;;;;2.70;2.60;;;;;;;1.54;100.00;102052.09;6081995;23;20380;-64
2022/03/16 06:09:38;;;;;;;3.45;3.25;;;;;;;1.56;100.00;102048.69;6085337;23;20088;-63
2022/03/16 06:12:08;;;;;;;3.70;3.55;;;;;;;1.59;100.00;102051.28;6078131;23;20572;-64
2022/03/16 06:14:34;;;;;;;2.70;2.60;;;;;;;1.59;100.00;102047.84;6084728;23;20018;-64
2022/03/16 06:17:01;;;;;;;5.35;4.85;;;;;;;1.63;100.00;102048.75;6052745;23;20042;-64
2022/03/16 06:19:27;;;;;;;2.70;2.60;;;;;;;1.66;100.00;102047.00;6081506;23;20053;-64
2022/03/16 06:21:54;;;;;;;5.07;4.88;;;;;;;1.51;100.00;102015.88;6084289;23;20295;-64
2022/03/16 06:24:20;;;;;;;2.50;2.40;;;;;;;1.74;100.00;102044.47;6083773;23;20036;-64
2022/03/16 06:26:47;;;;;;;3.00;2.90;;;;;;;1.84;100.00;102050.56;6070477;23;20022;-64
2022/03/16 06:29:13;;;;;;;2.78;2.67;;;;;;;1.88;100.00;102048.00;6074841;23;20041;-64
2022/03/16 06:31:39;;;;;;;2.67;2.58;;;;;;;1.93;100.00;102050.63;6081291;23;20013;-66
2022/03/16 06:34:06;;;;;;;3.10;3.00;;;;;;;1.96;100.00;102045.47;6079731;23;20747;-63
2022/03/16 06:36:33;;;;;;;3.40;3.22;;;;;;;2.06;100.00;102051.56;6077842;23;20518;-63
2022/03/16 06:38:59;;;;;;;5.13;4.93;;;;;;;2.26;100.00;102046.47;6079008;23;20073;-63
2022/03/16 06:41:26;;;;;;;3.00;2.90;;;;;;;2.39;100.00;102043.94;6086476;23;20413;-64
2022/03/16 06:43:52;;;;;;;3.88;3.72;;;;;;;2.59;100.00;102045.72;6078637;23;20014;-64
2022/03/16 06:46:18;;;;;;;2.70;2.60;;;;;;;2.76;100.00;102043.16;6088150;23;20210;-63
2022/03/16 06:48:45;;;;;;;3.65;3.53;;;;;;;2.91;100.00;102052.69;6052109;23;20487;-63
2022/03/16 06:51:12;;;;;;;3.10;3.00;;;;;;;2.95;100.00;102036.28;6077585;23;20101;-63
2022/03/16 06:53:38;;;;;;;8.32;5.53;;;;;;;3.13;100.00;102036.28;6083148;23;20020;-64
2022/03/16 06:56:04;;;;;;;5.35;5.13;;;;;;;3.07;100.00;102014.69;6078340;23;20053;-64
2022/03/16 06:58:31;;;;;;;2.70;2.60;;;;;;;3.04;100.00;101986.13;6099041;23;20024;-64
2022/03/16 07:00:57;;;;;;;4.45;4.25;;;;;;;3.49;100.00;102037.13;6081540;23;20005;-63
2022/03/16 07:03:24;;;;;;;2.90;2.80;;;;;;;3.14;100.00;101957.59;6084263;23;20100;-63
2022/03/16 07:05:51;;;;;;;4.53;4.32;;;;;;;3.66;100.00;102033.66;6083456;23;20232;-63
2022/03/16 07:08:17;;;;;;;3.10;3.00;;;;;;;3.73;100.00;102036.22;6054973;23;20281;-64
2022/03/16 07:10:44;;;;;;;3.10;3.00;;;;;;;1.37;100.00;101633.00;6083922;23;20525;-64
2022/03/16 07:13:12;;;;;;;3.05;2.95;;;;;;;3.91;100.00;102029.25;6077792;23;20530;-63
2022/03/16 07:15:44;;;;;;;3.60;3.50;;;;;;;3.95;100.00;102023.19;6075315;23;20078;-63
2022/03/16 07:18:12;;;;;;;3.10;3.00;;;;;;;4.08;100.00;102021.41;6066913;23;20173;-65
2022/03/16 07:20:39;;;;;;;3.75;3.58;;;;;;;4.20;100.00;102023.94;6075285;23;20077;-63
2022/03/16 07:23:11;;;;;;;3.78;3.67;;;;;;;4.23;100.00;102029.16;6050230;23;20138;-64
2022/03/16 07:25:39;;;;;;;3.28;3.17;;;;;;;4.26;100.00;102018.72;6088077;23;20025;-64
2022/03/16 07:28:07;;;;;;;4.28;4.07;;;;;;;3.92;100.00;101955.66;6085144;23;20490;-64
2022/03/16 07:30:34;;;;;;;3.33;3.22;;;;;;;3.85;100.00;101933.19;6082088;23;20014;-65
2022/03/16 07:33:02;;;;;;;5.20;5.00;;;;;;;4.38;100.00;102004.81;6063321;23;20119;-64
2022/03/16 07:35:28;;;;;;;3.10;3.00;;;;;;;4.54;100.00;102015.97;6073892;23;20022;-65
2022/03/16 07:37:56;;;;;;;5.15;4.95;;;;;;;4.65;99.07;102015.91;6079937;23;20427;-64
2022/03/16 07:40:24;;;;;;;3.20;3.10;;;;;;;4.37;98.04;101944.16;6080940;23;20540;-65
2022/03/16 07:42:52;;;;;;;4.53;4.32;;;;;;;4.85;96.72;102003.66;6078580;23;20046;-64
2022/03/16 07:45:19;;;;;;;3.10;3.00;;;;;;;4.88;96.20;102005.34;6081246;23;20052;-65
2022/03/16 07:47:50;;;;;;;3.50;3.40;;;;;;;5.04;96.44;102022.56;6073725;23;20027;-65
2022/03/16 07:50:18;;;;;;;3.33;3.22;;;;;;;5.14;96.13;102024.22;6082440;23;20021;-64
2022/03/16 07:52:45;;;;;;;3.50;3.40;;;;;;;4.95;95.24;101973.19;6083148;23;20030;-63
2022/03/16 07:55:13;;;;;;;3.50;3.40;;;;;;;5.39;93.92;102024.88;6079279;23;20010;-64
2022/03/16 07:57:41;;;;;;;4.63;3.70;;;;;;;5.46;92.58;102030.03;6080540;23;20026;-64
2022/03/16 08:00:13;;;;;;;3.63;3.42;;;;;;;5.51;92.86;102026.50;6082299;23;20265;-64
2022/03/16 08:02:40;;;;;;;3.50;3.40;;;;;;;5.32;92.00;101978.09;6078341;23;20060;-64
2022/03/16 08:05:07;;;;;;;3.10;3.00;;;;;;;5.18;91.33;101952.19;6077264;23;20648;-64
2022/03/16 08:07:36;;;;;;;8.98;3.72;;;;;;;5.65;91.38;102013.31;6077205;23;20151;-64
2022/03/16 08:10:03;;;;;;;3.90;3.70;;;;;;;5.57;91.56;102012.53;6079375;23;20507;-64
2022/03/16 08:12:30;;;;;;;3.40;3.30;;;;;;;5.70;91.25;102015.91;6079231;23;20086;-63
2022/03/16 08:14:56;;;;;;;5.25;5.05;;;;;;;5.75;91.42;102016.69;6075913;23;20014;-66
2022/03/16 08:17:23;;;;;;;3.30;3.20;;;;;;;5.88;90.58;102023.50;6075085;23;20318;-67
2022/03/16 08:19:49;;;;;;;4.80;4.60;;;;;;;6.08;89.15;102023.31;6083907;23;20033;-64
2022/03/16 08:22:33;;;;;;;3.95;3.80;;;;;;;5.95;88.30;101991.31;6083743;23;20066;-67
2022/03/16 08:25:02;;;;;;;5.65;5.35;;;;;;;6.28;88.20;102017.84;6077249;23;20187;-67
2022/03/16 08:27:30;;;;;;;3.20;3.10;;;;;;;6.44;86.99;102012.44;6092078;23;20022;-63
2022/03/16 08:29:57;;;;;;;4.97;4.78;;;;;;;6.50;85.97;102001.91;6075289;23;20078;-64
2022/03/16 08:32:24;;;;;;;3.50;3.40;;;;;;;6.62;85.40;101988.69;6078389;23;20124;-64
2022/03/16 08:34:51;;;;;;;4.95;4.75;;;;;;;6.51;85.68;101962.75;6081287;23;20014;-64
2022/03/16 08:37:19;;;;;;;3.30;3.20;;;;;;;6.91;85.38;101993.44;6082429;23;20022;-64
2022/03/16 08:39:46;;;;;;;3.47;3.38;;;;;;;6.77;83.96;101982.34;6088790;23;20045;-64
2022/03/16 08:42:14;;;;;;;3.83;3.67;;;;;;;6.99;83.80;102006.38;6092722;23;20680;-64
2022/03/16 08:44:42;;;;;;;3.47;3.38;;;;;;;7.08;83.02;102005.38;6055373;23;20341;-64
2022/03/16 08:47:16;;;;;;;4.20;4.00;;;;;;;7.21;83.26;101993.81;6089217;23;20043;-64
2022/03/16 08:49:44;;;;;;;3.78;3.67;;;;;;;7.18;81.71;101984.28;6057316;23;20003;-64
2022/03/16 08:52:11;;;;;;;3.50;3.40;;;;;;;7.30;82.43;102000.66;6083312;23;20052;-64
2022/03/16 08:54:38;;;;;;;3.40;3.30;;;;;;;7.31;80.88;101992.75;6056410;23;20082;-64
2022/03/16 08:57:06;;;;;;;5.05;4.85;;;;;;;7.37;80.65;101984.81;6080440;23;20660;-64
2022/03/16 08:59:33;;;;;;;3.40;3.30;;;;;;;7.51;80.56;101992.41;6075246;23;20021;-64
2022/03/16 09:01:59;;;;;;;5.55;5.35;;;;;;;7.50;81.11;101974.16;6099482;23;20040;-67
2022/03/16 09:04:26;;;;;;;3.83;3.63;;;;;;;7.76;79.45;101991.94;6081674;23;20021;-64
2022/03/16 09:06:53;;;;;;;4.88;4.68;;;;;;;7.94;80.00;101993.34;6089624;23;20087;-67
2022/03/16 09:09:19;;;;;;;3.65;3.53;;;;;;;8.06;78.80;101987.84;6089901;23;20077;-67
2022/03/16 09:11:45;;;;;;;4.95;4.68;;;;;;;8.27;78.98;101996.13;6082806;23;20089;-68
2022/03/16 09:14:12;;;;;;;6.55;3.80;;;;;;;8.25;77.73;101990.91;6083494;23;20499;-67
2022/03/16 09:16:39;;;;;;;4.40;4.00;;;;;;;8.37;76.80;101988.03;6075906;23;20022;-66
2022/03/16 09:19:05;;;;;;;4.88;4.68;;;;;;;8.51;77.44;101992.13;6083780;23;20404;-66
2022/03/16 09:21:32;;;;;;;3.83;3.63;;;;;;;8.66;77.16;101986.56;6082923;23;20050;-66
2022/03/16 09:23:59;;;;;;;5.60;5.32;;;;;;;8.75;75.32;101978.47;6082118;23;20005;-67
2022/03/16 09:26:26;;;;;;;3.70;3.60;;;;;;;8.72;74.76;101975.94;6096713;23;20646;-67
2022/03/16 09:28:55;;;;;;;6.28;5.95;;;;;;;8.75;74.40;101960.16;6048242;23;20027;-66
2022/03/16 09:31:22;;;;;;;3.55;3.45;;;;;;;8.88;73.64;101983.41;6089218;23;20249;-66
2022/03/16 09:33:48;;;;;;;4.20;4.03;;;;;;;8.95;74.05;101982.38;6085537;23;20068;-68
2022/03/16 09:36:15;;;;;;;4.00;3.80;;;;;;;9.12;73.26;101995.91;6082937;23;20073;-67
2022/03/16 09:38:42;;;;;;;4.53;4.30;;;;;;;9.11;72.60;102009.03;6062861;23;20061;-64
2022/03/16 09:41:09;;;;;;;4.10;3.90;;;;;;;9.20;72.40;101990.47;6081689;23;20026;-68
2022/03/16 09:43:38;;;;;;;3.70;3.60;;;;;;;9.17;72.36;101987.94;6077210;23;20101;-67
2022/03/16 09:46:04;;;;;;;5.05;4.85;;;;;;;9.26;72.80;101986.81;6082012;23;20034;-67
2022/03/16 09:48:32;;;;;;;3.95;3.80;;;;;;;9.31;71.42;101992.81;6079907;23;20018;-67
2022/03/16 09:50:59;;;;;;;10.98;5.82;;;;;;;9.22;71.67;101977.31;6079486;23;20518;-67
2022/03/16 09:53:26;;;;;;;4.93;4.55;;;;;;;9.33;71.96;102002.34;6084510;23;20117;-67
2022/03/16 09:55:54;;;;;;;4.80;4.60;;;;;;;9.39;72.13;101972.50;6064944;23;20517;-65
2022/03/16 09:58:21;;;;;;;3.70;3.60;;;;;;;9.39;70.38;101968.13;6081017;23;20101;-63
2022/03/16 10:00:48;;;;;;;4.80;4.57;;;;;;;9.18;70.67;101901.47;6069079;23;20487;-69
2022/03/16 10:03:16;;;;;;;4.13;3.92;;;;;;;9.79;70.50;101988.00;6082383;23;20779;-66
2022/03/16 10:05:46;;;;;;;4.20;4.00;;;;;;;9.74;69.73;101973.28;6081949;23;20054;-65
2022/03/16 10:08:14;;;;;;;4.00;3.80;;;;;;;9.82;69.57;101963.44;6059065;23;20051;-67
2022/03/16 10:13:25;;;;;;;4.00;3.80;;;;;;;10.06;67.56;101950.53;6078983;23;20028;-66
2022/03/16 10:16:07;;;;;;;5.90;5.55;;;;;;;9.90;67.63;101923.88;6061732;23;20374;-66
2022/03/16 10:18:35;;;;;;;4.35;4.15;;;;;;;10.23;68.66;101953.50;6074242;23;20026;-66
2022/03/16 10:21:07;;;;;;;5.10;4.90;;;;;;;10.33;67.36;101952.34;6059978;23;20461;-66
2022/03/16 10:23:35;;;;;;;4.72;4.45;;;;;;;10.35;66.67;101931.31;6077026;23;20588;-66
2022/03/16 10:26:03;;;;;;;5.82;5.55;;;;;;;10.52;66.80;101949.13;6074754;23;20022;-66
2022/03/16 10:28:31;;;;;;;4.30;4.10;;;;;;;10.50;66.88;101943.97;6080435;23;20026;-66
2022/03/16 10:31:01;;;;;;;5.75;5.45;;;;;;;10.63;65.26;101940.94;6066039;23;20014;-66
2022/03/16 10:33:33;;;;;;;4.25;4.05;;;;;;;10.54;65.78;101952.56;6083197;23;20233;-67
2022/03/16 10:36:07;;;;;;;6.03;5.72;;;;;;;10.64;65.75;101951.34;6063430;23;20018;-65
2022/03/16 10:38:40;;;;;;;4.28;4.07;;;;;;;10.83;65.70;101956.88;6075869;23;20419;-68
2022/03/16 10:46:54;;;;;;;17.23;16.35;;;;;;;11.37;64.20;101934.03;5950879;23;20017;-66
2022/03/16 10:49:22;;;;;;;4.53;4.32;;;;;;;11.30;62.49;101919.38;6034563;23;20109;-67
2022/03/16 10:52:18;;;;;;;5.15;4.85;;;;;;;11.27;63.22;101938.75;6080414;23;20009;-68
2022/03/16 10:54:48;;;;;;;4.50;4.30;;;;;;;11.04;63.13;101910.63;6029101;23;20021;-64
2022/03/16 10:57:15;;;;;;;4.45;4.25;;;;;;;11.21;62.94;101920.56;6078409;23;20263;-67
2022/03/16 10:59:43;;;;;;;4.60;4.40;;;;;;;11.12;63.66;101882.31;6065110;23;20173;-64
2022/03/16 11:02:15;;;;;;;5.03;4.72;;;;;;;11.45;62.65;101897.81;6076481;23;20038;-66
2022/03/16 11:04:47;;;;;;;4.50;4.30;;;;;;;11.43;61.66;101902.25;6074998;23;20026;-67
2022/03/16 11:07:15;;;;;;;4.32;4.13;;;;;;;11.51;62.46;101909.88;6105921;23;20049;-66
2022/03/16 11:09:41;;;;;;;4.45;4.25;;;;;;;11.56;60.71;101900.88;6061239;23;20036;-65
2022/03/16 11:15:01;;;;;;;5.85;5.60;;;;;;;11.86;61.59;101923.47;6050975;23;20105;-66
2022/03/16 11:17:29;;;;;;;4.70;4.50;;;;;;;12.04;60.02;101914.91;6076812;23;20404;-68
2022/03/16 11:19:56;;;;;;;5.30;4.90;;;;;;;12.08;60.40;101913.00;6082077;23;20052;-66
2022/03/16 11:22:31;;;;;;;4.22;4.03;;;;;;;12.02;61.25;101902.72;6082623;23;20145;-68
2022/03/16 11:25:15;;;;;;;6.32;6.03;;;;;;;12.14;61.18;101916.25;6079463;23;20029;-66
2022/03/16 11:27:52;;;;;;;4.80;4.50;;;;;;;11.97;61.43;101880.09;6085912;23;20091;-67
2022/03/16 11:30:33;;;;;;;4.68;4.47;;;;;;;12.01;60.94;101912.41;6072275;23;20216;-66
2022/03/16 11:33:15;;;;;;;6.15;5.85;;;;;;;11.91;60.64;101900.53;6078117;23;20034;-65
2022/03/16 11:35:50;;;;;;;4.47;4.22;;;;;;;11.94;61.06;101903.88;6068868;23;20360;-67
2022/03/16 11:38:18;;;;;;;4.65;4.45;;;;;;;11.15;59.54;101740.34;6102703;23;20059;-65
2022/03/16 11:40:50;;;;;;;4.40;4.20;;;;;;;12.31;60.08;101904.22;6080070;23;20026;-66